createdAt,value
2022-12-25T00:02:15.419Z,35.15
2022-12-25T00:04:42.016Z,34.38
2022-12-25T00:07:08.590Z,34.10
2022-12-25T00:09:35.187Z,32.80
2022-12-25T00:12:01.793Z,32.75
2022-12-25T00:14:28.368Z,30.85
2022-12-25T00:16:55.015Z,31.23
2022-12-25T00:19:21.661Z,31.23
2022-12-25T00:21:48.219Z,32.80
2022-12-25T00:24:14.739Z,33.00
2022-12-25T00:26:41.355Z,33.20
2022-12-25T00:29:12.346Z,33.80
2022-12-25T00:31:38.946Z,32.90
2022-12-25T00:34:05.580Z,33.85
2022-12-25T00:36:37.759Z,33.15
2022-12-25T00:39:07.952Z,34.38
2022-12-25T00:41:53.123Z,33.10
2022-12-25T00:46:46.366Z,31.67
2022-12-25T00:49:13.509Z,32.25
2022-12-25T00:51:40.467Z,31.05
2022-12-25T00:54:07.223Z,29.85
2022-12-25T00:56:34.184Z,29.48
2022-12-25T00:59:00.764Z,29.58
2022-12-25T01:01:27.430Z,29.30
2022-12-25T01:03:55.316Z,29.58
2022-12-25T01:06:21.924Z,29.40
2022-12-25T01:09:06.891Z,30.73
2022-12-25T01:11:33.579Z,30.20
2022-12-25T01:14:00.261Z,28.42
2022-12-25T01:16:27.348Z,30.48
2022-12-25T01:18:54.121Z,28.38
2022-12-25T01:21:21.367Z,28.33
2022-12-25T01:23:50.147Z,27.38
2022-12-25T01:26:18.015Z,27.15
2022-12-25T01:28:44.645Z,25.70
2022-12-25T01:31:15.325Z,26.88
2022-12-25T01:33:43.386Z,24.83
2022-12-25T01:36:17.443Z,28.90
2022-12-25T01:38:44.994Z,28.25
2022-12-25T01:41:12.653Z,27.42
2022-12-25T01:44:19.741Z,27.20
2022-12-25T01:46:46.339Z,26.60
2022-12-25T01:49:18.028Z,26.95
2022-12-25T01:51:47.150Z,27.00
2022-12-25T01:54:19.877Z,26.98
2022-12-25T01:56:48.858Z,26.45
2022-12-25T01:59:19.767Z,27.45
2022-12-25T02:01:46.987Z,26.65
2022-12-25T02:04:21.988Z,26.30
2022-12-25T02:06:51.602Z,26.38
2022-12-25T02:09:18.755Z,26.23
2022-12-25T02:11:59.013Z,25.83
2022-12-25T02:14:30.398Z,26.52
2022-12-25T02:17:07.328Z,24.83
2022-12-25T02:19:52.627Z,26.02
2022-12-25T02:22:50.288Z,25.38
2022-12-25T02:25:38.762Z,25.15
2022-12-25T02:28:13.046Z,25.50
2022-12-25T02:30:44.594Z,25.80
2022-12-25T02:33:34.781Z,26.27
2022-12-25T02:36:06.243Z,25.73
2022-12-25T02:38:59.867Z,25.70
2022-12-25T02:41:30.527Z,27.00
2022-12-25T02:44:18.470Z,26.48
2022-12-25T02:47:04.330Z,27.10
2022-12-25T02:49:52.547Z,25.98
2022-12-25T02:52:40.817Z,25.85
2022-12-25T02:55:32.921Z,28.67
2022-12-25T02:58:27.281Z,25.35
2022-12-25T03:01:21.535Z,26.90
2022-12-25T03:04:08.884Z,28.20
2022-12-25T03:06:43.225Z,26.55
2022-12-25T03:09:32.995Z,25.50
2022-12-25T03:12:05.356Z,25.63
2022-12-25T03:14:50.717Z,24.95
2022-12-25T03:17:17.587Z,24.95
2022-12-25T03:20:02.980Z,25.60
2022-12-25T03:22:50.781Z,24.90
2022-12-25T03:25:37.409Z,26.00
2022-12-25T03:28:05.948Z,25.33
2022-12-25T03:31:13.799Z,25.45
2022-12-25T03:34:08.011Z,24.17
2022-12-25T03:37:17.162Z,23.40
2022-12-25T03:40:26.710Z,25.45
2022-12-25T03:43:19.000Z,25.40
2022-12-25T03:46:10.548Z,25.80
2022-12-25T03:49:01.487Z,23.95
2022-12-25T03:51:51.936Z,25.70
2022-12-25T03:54:41.589Z,25.40
2022-12-25T03:57:28.427Z,25.23
2022-12-25T04:00:13.797Z,28.65
2022-12-25T04:02:58.861Z,31.83
2022-12-25T04:08:29.099Z,37.80
2022-12-25T04:13:58.907Z,37.10
2022-12-25T04:16:43.861Z,52.05
2022-12-25T04:19:29.168Z,52.47
2022-12-25T04:22:14.203Z,50.67
2022-12-25T04:27:44.235Z,41.35
2022-12-25T04:30:29.363Z,44.75
2022-12-25T04:33:17.821Z,45.85
2022-12-25T04:36:08.704Z,48.13
2022-12-25T04:38:36.653Z,39.63
2022-12-25T04:41:03.749Z,44.75
2022-12-25T04:43:30.329Z,42.58
2022-12-25T04:45:58.910Z,40.08
2022-12-25T04:48:26.687Z,33.47
2022-12-25T04:50:53.750Z,35.53
2022-12-25T04:53:20.905Z,36.20
2022-12-25T04:55:47.509Z,36.10
2022-12-25T04:58:14.589Z,34.88
2022-12-25T05:00:41.636Z,31.75
2022-12-25T05:03:08.293Z,32.28
2022-12-25T05:05:38.352Z,29.65
2022-12-25T05:08:05.824Z,27.83
2022-12-25T05:10:32.424Z,27.80
2022-12-25T05:12:59.129Z,25.85
2022-12-25T05:15:25.727Z,23.95
2022-12-25T05:17:52.300Z,22.88
2022-12-25T05:20:18.901Z,22.90
2022-12-25T05:22:45.540Z,22.75
2022-12-25T05:25:12.118Z,21.08
2022-12-25T05:27:38.680Z,21.13
2022-12-25T05:30:05.771Z,20.73
2022-12-25T05:32:32.367Z,21.17
2022-12-25T05:35:00.411Z,22.42
2022-12-25T05:37:26.990Z,21.38
2022-12-25T05:39:53.570Z,22.25
2022-12-25T05:42:20.135Z,22.55
2022-12-25T05:44:46.835Z,22.35
2022-12-25T05:47:13.483Z,23.30
2022-12-25T05:49:40.067Z,24.70
2022-12-25T05:52:06.625Z,23.25
2022-12-25T05:54:35.254Z,22.60
2022-12-25T05:57:02.088Z,22.52
2022-12-25T05:59:33.299Z,22.70
2022-12-25T06:02:00.599Z,21.50
2022-12-25T06:04:27.498Z,20.10
2022-12-25T06:06:54.061Z,21.08
2022-12-25T06:09:20.637Z,22.95
2022-12-25T06:11:47.201Z,25.15
2022-12-25T06:14:15.615Z,24.63
2022-12-25T06:16:42.598Z,23.85
2022-12-25T06:19:09.223Z,24.30
2022-12-25T06:21:35.817Z,22.17
2022-12-25T06:24:02.684Z,23.20
2022-12-25T06:26:29.353Z,23.60
2022-12-25T06:28:55.897Z,24.33
2022-12-25T06:31:23.655Z,24.42
2022-12-25T06:33:50.579Z,25.25
2022-12-25T06:36:20.259Z,23.35
2022-12-25T06:38:46.948Z,23.00
2022-12-25T06:41:18.870Z,22.67
2022-12-25T06:43:51.187Z,22.70
2022-12-25T06:46:18.806Z,23.65
2022-12-25T06:48:49.337Z,23.73
2022-12-25T06:51:17.845Z,23.42
2022-12-25T06:53:44.493Z,23.13
2022-12-25T06:56:16.425Z,25.23
2022-12-25T06:58:57.038Z,23.80
2022-12-25T07:01:27.250Z,24.52
2022-12-25T07:03:58.126Z,23.55
2022-12-25T07:06:26.380Z,22.77
2022-12-25T07:08:53.036Z,22.65
2022-12-25T07:11:20.461Z,21.95
2022-12-25T07:13:47.471Z,22.67
2022-12-25T07:16:15.464Z,22.70
2022-12-25T07:18:42.334Z,24.13
2022-12-25T07:21:14.336Z,21.65
2022-12-25T07:23:42.171Z,22.23
2022-12-25T07:26:10.482Z,21.00
2022-12-25T07:28:37.315Z,20.58
2022-12-25T07:31:06.379Z,20.90
2022-12-25T07:33:33.979Z,20.60
2022-12-25T07:36:00.808Z,20.73
2022-12-25T07:38:27.764Z,21.17
2022-12-25T07:40:54.541Z,21.63
2022-12-25T07:43:21.126Z,22.63
2022-12-25T07:45:47.778Z,24.27
2022-12-25T07:48:16.785Z,22.25
2022-12-25T07:50:43.866Z,24.00
2022-12-25T07:53:10.466Z,24.23
2022-12-25T07:55:37.093Z,23.52
2022-12-25T07:58:03.692Z,22.52
2022-12-25T08:00:33.988Z,22.27
2022-12-25T08:03:00.840Z,22.13
2022-12-25T08:05:27.753Z,22.92
2022-12-25T08:07:57.665Z,26.67
2022-12-25T08:10:24.832Z,28.95
2022-12-25T08:12:52.095Z,30.10
2022-12-25T08:15:18.690Z,30.83
2022-12-25T08:17:45.256Z,30.52
2022-12-25T08:20:12.229Z,30.38
2022-12-25T08:22:38.808Z,32.83
2022-12-25T08:25:05.538Z,40.45
2022-12-25T08:27:32.200Z,44.35
2022-12-25T08:29:58.744Z,42.10
2022-12-25T08:32:25.351Z,29.98
2022-12-25T08:34:51.923Z,27.48
2022-12-25T08:37:18.516Z,26.45
2022-12-25T08:39:45.170Z,26.15
2022-12-25T08:42:11.693Z,30.15
2022-12-25T08:44:38.422Z,32.38
2022-12-25T08:47:05.064Z,36.08
2022-12-25T08:49:31.941Z,45.03
2022-12-25T08:51:58.772Z,61.35
2022-12-25T08:54:25.343Z,48.53
2022-12-25T08:56:53.332Z,46.63
2022-12-25T08:59:21.730Z,57.97
2022-12-25T09:01:48.460Z,90.60
2022-12-25T09:04:15.204Z,165.77
2022-12-25T09:06:41.759Z,189.80
2022-12-25T09:09:08.320Z,226.45
2022-12-25T09:11:34.859Z,195.43
2022-12-25T09:14:01.458Z,166.85
2022-12-25T09:16:28.449Z,212.55
2022-12-25T09:18:56.699Z,150.35
2022-12-25T09:21:23.224Z,127.63
2022-12-25T09:23:50.074Z,110.18
2022-12-25T09:26:18.330Z,85.78
2022-12-25T09:28:51.234Z,103.53
2022-12-25T09:31:20.073Z,64.00
2022-12-25T09:33:47.039Z,55.08
2022-12-25T09:36:13.818Z,104.35
2022-12-25T09:38:40.495Z,182.77
2022-12-25T09:41:38.261Z,138.77
2022-12-25T09:44:16.781Z,150.10
2022-12-25T09:46:55.829Z,119.22
2022-12-25T09:49:48.521Z,37.95
2022-12-25T09:52:22.066Z,41.58
2022-12-25T09:54:54.100Z,65.20
2022-12-25T09:57:20.776Z,69.35
2022-12-25T09:59:47.657Z,66.20
2022-12-25T10:02:51.807Z,85.07
2022-12-25T10:05:39.647Z,22.08
2022-12-25T10:08:41.242Z,19.52
2022-12-25T10:11:39.200Z,19.42
2022-12-25T10:14:35.407Z,19.45
2022-12-25T10:17:32.131Z,19.38
2022-12-25T10:20:13.588Z,19.52
2022-12-25T10:22:45.811Z,19.40
2022-12-25T10:25:20.505Z,19.80
2022-12-25T10:27:51.736Z,19.25
2022-12-25T10:30:26.283Z,20.70
2022-12-25T10:32:54.887Z,19.50
2022-12-25T10:35:24.272Z,18.05
2022-12-25T10:37:58.939Z,16.77
2022-12-25T10:40:58.032Z,14.63
2022-12-25T10:43:49.843Z,14.38
2022-12-25T10:46:17.582Z,13.23
2022-12-25T10:48:51.862Z,12.23
2022-12-25T10:51:34.640Z,12.35
2022-12-25T10:54:25.140Z,11.75
2022-12-25T10:56:57.487Z,10.73
2022-12-25T10:59:29.426Z,11.82
2022-12-25T11:02:03.783Z,11.15
2022-12-25T11:04:35.618Z,11.13
2022-12-25T11:07:07.577Z,10.88
2022-12-25T11:09:34.657Z,11.13
2022-12-25T11:12:01.512Z,10.98
2022-12-25T11:14:29.247Z,11.25
2022-12-25T11:16:56.160Z,10.85
2022-12-25T11:19:32.874Z,10.90
2022-12-25T11:22:01.900Z,10.60
2022-12-25T11:24:31.240Z,11.07
2022-12-25T11:27:01.708Z,10.80
2022-12-25T11:29:48.920Z,10.93
2022-12-25T11:32:46.543Z,11.20
2022-12-25T11:35:16.311Z,11.48
2022-12-25T11:37:52.956Z,11.27
2022-12-25T11:40:24.936Z,11.20
2022-12-25T11:42:55.594Z,11.27
2022-12-25T11:45:31.715Z,11.45
2022-12-25T11:48:24.651Z,11.68
2022-12-25T11:50:59.732Z,11.30
2022-12-25T11:53:41.202Z,12.05
2022-12-25T11:56:11.309Z,10.98
2022-12-25T11:58:50.066Z,10.85
2022-12-25T12:01:29.300Z,11.90
2022-12-25T12:03:57.938Z,11.65
2022-12-25T12:06:43.545Z,12.23
2022-12-25T12:09:35.430Z,12.35
2022-12-25T12:12:17.328Z,11.32
2022-12-25T12:15:00.633Z,11.18
2022-12-25T12:17:27.240Z,12.13
2022-12-25T12:19:53.834Z,13.68
2022-12-25T12:22:23.807Z,13.10
2022-12-25T12:25:01.471Z,14.13
2022-12-25T12:27:36.120Z,13.43
2022-12-25T12:30:04.385Z,13.15
2022-12-25T12:32:42.736Z,13.25
2022-12-25T12:35:17.385Z,13.45
2022-12-25T12:37:46.769Z,12.52
2022-12-25T12:40:35.723Z,13.18
2022-12-25T12:43:02.930Z,11.93
2022-12-25T12:45:33.712Z,11.55
2022-12-25T12:48:00.804Z,13.07
2022-12-25T12:50:27.488Z,11.57
2022-12-25T12:52:54.055Z,12.90
2022-12-25T12:55:34.929Z,12.43
2022-12-25T12:58:05.111Z,12.43
2022-12-25T13:00:52.413Z,11.70
2022-12-25T13:04:05.294Z,12.30
2022-12-25T13:07:05.865Z,12.20
2022-12-25T13:09:56.869Z,11.10
2022-12-25T13:12:23.916Z,10.77
2022-12-25T13:14:51.029Z,11.15
2022-12-25T13:17:22.519Z,10.80
2022-12-25T13:19:55.345Z,11.30
2022-12-25T13:22:30.993Z,12.00
2022-12-25T13:25:00.465Z,12.07
2022-12-25T13:27:30.616Z,12.32
2022-12-25T13:29:58.570Z,14.77
2022-12-25T13:32:28.217Z,14.95
2022-12-25T13:34:55.441Z,15.85
2022-12-25T13:37:25.462Z,16.80
2022-12-25T13:39:56.543Z,18.85
2022-12-25T13:42:28.619Z,22.42
2022-12-25T13:45:00.568Z,22.15
2022-12-25T13:47:32.245Z,23.30
2022-12-25T13:50:02.754Z,26.42
2022-12-25T13:52:37.613Z,26.98
2022-12-25T13:55:12.608Z,33.35
2022-12-25T13:57:59.760Z,31.10
2022-12-25T14:00:38.068Z,29.70
2022-12-25T14:03:09.736Z,25.83
2022-12-25T14:05:43.102Z,23.25
2022-12-25T14:08:15.846Z,23.75
2022-12-25T14:10:45.940Z,23.98
2022-12-25T14:13:15.788Z,21.90
2022-12-25T14:15:45.029Z,23.83
2022-12-25T14:18:16.675Z,22.40
2022-12-25T14:21:01.271Z,22.83
2022-12-25T14:25:57.701Z,24.17
2022-12-25T14:28:32.177Z,22.65
2022-12-25T14:31:02.889Z,23.70
2022-12-25T14:33:36.752Z,23.77
2022-12-25T14:36:03.652Z,24.85
2022-12-25T14:38:40.956Z,23.65
2022-12-25T14:41:34.916Z,23.23
2022-12-25T14:44:03.915Z,21.58
2022-12-25T14:46:33.183Z,20.92
2022-12-25T14:49:07.148Z,20.95
2022-12-25T14:51:38.199Z,20.50
2022-12-25T14:54:17.354Z,19.05
2022-12-25T14:56:48.478Z,19.90
2022-12-25T14:59:20.922Z,21.55
2022-12-25T15:01:57.600Z,20.83
2022-12-25T15:04:25.916Z,21.08
2022-12-25T15:07:11.383Z,23.20
2022-12-25T15:09:38.095Z,23.58
2022-12-25T15:12:04.961Z,24.73
2022-12-25T15:14:31.570Z,26.73
2022-12-25T15:17:01.294Z,27.35
2022-12-25T15:19:38.704Z,31.27
2022-12-25T15:22:06.382Z,32.45
2022-12-25T15:24:33.006Z,33.53
2022-12-25T15:27:00.626Z,33.83
2022-12-25T15:30:07.340Z,33.05
2022-12-25T15:32:19.039Z,33.00
2022-12-25T15:34:47.250Z,35.45
2022-12-25T15:37:14.453Z,32.80
2022-12-25T15:39:41.566Z,32.67
2022-12-25T15:42:16.887Z,31.67
2022-12-25T15:44:44.706Z,30.67
2022-12-25T15:47:16.155Z,29.40
2022-12-25T15:49:43.697Z,27.15
2022-12-25T15:52:14.377Z,28.30
2022-12-25T15:54:41.186Z,26.10
2022-12-25T15:57:22.392Z,27.27
2022-12-25T15:59:49.059Z,28.70
2022-12-25T16:02:18.457Z,25.75
2022-12-25T16:04:45.624Z,25.40
2022-12-25T16:07:18.341Z,25.27
2022-12-25T16:09:45.032Z,26.60
2022-12-25T16:12:11.861Z,24.50
2022-12-25T16:14:38.448Z,26.75
2022-12-25T16:17:05.828Z,30.63
2022-12-25T16:19:32.457Z,30.30
2022-12-25T16:21:59.209Z,30.20
2022-12-25T16:24:25.785Z,33.10
2022-12-25T16:26:52.345Z,37.72
2022-12-25T16:29:18.921Z,42.22
2022-12-25T16:31:45.630Z,47.70
2022-12-25T16:34:12.237Z,52.85
2022-12-25T16:36:39.308Z,58.95
2022-12-25T16:39:06.862Z,61.63
2022-12-25T16:41:34.433Z,76.05
2022-12-25T16:44:09.371Z,83.80
2022-12-25T16:46:37.736Z,92.63
2022-12-25T16:49:04.507Z,107.18
2022-12-25T16:51:31.137Z,113.80
2022-12-25T16:53:57.723Z,124.00
2022-12-25T16:56:26.970Z,136.40
2022-12-25T16:58:53.953Z,147.93
2022-12-25T17:01:25.456Z,153.73
2022-12-25T17:03:52.697Z,163.13
2022-12-25T17:06:23.158Z,177.13
2022-12-25T17:08:51.983Z,186.85
2022-12-25T17:11:23.642Z,190.05
2022-12-25T17:13:50.396Z,195.82
2022-12-25T17:16:23.371Z,209.48
2022-12-25T17:19:05.064Z,214.90
2022-12-25T17:21:35.043Z,211.52
2022-12-25T17:24:04.015Z,215.57
2022-12-25T17:26:32.406Z,216.93
2022-12-25T17:28:59.281Z,214.90
2022-12-25T17:31:25.945Z,199.98
2022-12-25T17:33:52.720Z,191.35
2022-12-25T17:36:21.194Z,181.50
2022-12-25T17:38:48.565Z,173.02
2022-12-25T17:41:16.822Z,168.55
2022-12-25T17:43:45.669Z,178.63
2022-12-25T17:46:27.211Z,166.63
2022-12-25T17:48:56.677Z,149.43
2022-12-25T17:51:26.050Z,143.25
2022-12-25T17:53:57.090Z,138.25
2022-12-25T17:56:25.314Z,129.52
2022-12-25T17:58:54.259Z,121.22
2022-12-25T18:01:21.895Z,118.50
2022-12-25T18:03:49.125Z,101.78
2022-12-25T18:06:22.342Z,87.78
2022-12-25T18:08:49.502Z,73.38
2022-12-25T18:11:19.830Z,62.20
2022-12-25T18:13:49.924Z,51.38
2022-12-25T18:16:17.538Z,46.95
2022-12-25T18:18:51.387Z,43.42
2022-12-25T18:21:19.967Z,37.72
2022-12-25T18:23:46.928Z,38.08
2022-12-25T18:26:13.625Z,34.30
2022-12-25T18:28:42.398Z,33.08
2022-12-25T18:31:12.985Z,34.03
2022-12-25T18:33:39.555Z,32.40
2022-12-25T18:36:06.555Z,31.58
2022-12-25T18:38:33.617Z,33.22
2022-12-25T18:41:00.216Z,34.20
2022-12-25T18:43:54.149Z,34.25
2022-12-25T18:46:14.225Z,35.38
2022-12-25T18:48:41.344Z,34.90
2022-12-25T18:51:11.224Z,35.92
2022-12-25T18:53:38.311Z,37.20
2022-12-25T18:56:10.302Z,38.00
2022-12-25T18:58:38.291Z,37.35
2022-12-25T19:01:23.227Z,37.17
2022-12-25T19:06:23.705Z,32.58
2022-12-25T19:08:50.639Z,35.45
2022-12-25T19:11:18.565Z,34.72
2022-12-25T19:13:45.486Z,34.00
2022-12-25T19:16:12.734Z,35.05
2022-12-25T19:18:40.184Z,35.58
2022-12-25T19:21:08.688Z,36.13
2022-12-25T19:23:35.728Z,37.22
2022-12-25T19:26:05.156Z,39.75
2022-12-25T19:28:31.748Z,39.03
2022-12-25T19:31:00.035Z,37.38
2022-12-25T19:33:26.697Z,38.08
2022-12-25T19:35:53.363Z,41.03
2022-12-25T19:38:20.275Z,42.95
2022-12-25T19:41:00.595Z,42.38
2022-12-25T19:43:33.682Z,43.42
2022-12-25T19:46:01.574Z,41.70
2022-12-25T19:48:28.927Z,41.75
2022-12-25T19:50:55.568Z,42.95
2022-12-25T19:53:23.935Z,42.42
2022-12-25T19:55:54.431Z,44.47
2022-12-25T19:58:23.197Z,44.05
2022-12-25T20:01:02.771Z,41.97
2022-12-25T20:03:29.507Z,42.75
2022-12-25T20:05:56.606Z,46.47
2022-12-25T20:08:23.391Z,48.70
2022-12-25T20:10:50.709Z,48.90
2022-12-25T20:13:17.747Z,45.97
2022-12-25T20:15:44.598Z,47.08
2022-12-25T20:18:11.344Z,46.90
2022-12-25T20:20:38.031Z,46.03
2022-12-25T20:23:04.792Z,45.75
2022-12-25T20:25:31.381Z,47.47
2022-12-25T20:27:58.025Z,42.72
2022-12-25T20:30:24.664Z,43.95
2022-12-25T20:32:51.247Z,46.20
2022-12-25T20:35:18.061Z,48.10
2022-12-25T20:37:44.881Z,51.13
2022-12-25T20:40:12.123Z,52.90
2022-12-25T20:42:38.740Z,61.75
2022-12-25T20:45:07.446Z,54.88
2022-12-25T20:47:35.169Z,55.78
2022-12-25T20:50:01.805Z,50.13
2022-12-25T20:52:28.577Z,48.20
2022-12-25T20:54:55.147Z,47.65
2022-12-25T20:57:21.859Z,49.08
2022-12-25T20:59:48.426Z,50.03
2022-12-25T21:02:34.438Z,48.20
2022-12-25T21:05:02.226Z,49.22
2022-12-25T21:07:28.872Z,48.90
2022-12-25T21:09:55.411Z,52.80
2022-12-25T21:12:21.995Z,53.03
2022-12-25T21:14:48.559Z,53.25
2022-12-25T21:17:15.243Z,50.70
2022-12-25T21:19:41.857Z,56.08
2022-12-25T21:22:08.555Z,54.38
2022-12-25T21:24:35.190Z,56.85
2022-12-25T21:27:01.755Z,53.28
2022-12-25T21:29:28.331Z,56.15
2022-12-25T21:32:13.201Z,53.80
2022-12-25T21:34:40.047Z,46.42
2022-12-25T21:37:06.717Z,49.40
2022-12-25T21:39:33.337Z,46.15
2022-12-25T21:41:59.917Z,46.10
2022-12-25T21:44:26.515Z,46.40
2022-12-25T21:46:53.127Z,47.35
2022-12-25T21:49:39.740Z,49.60
2022-12-25T21:52:09.354Z,51.55
2022-12-25T21:54:36.271Z,48.88
2022-12-25T21:57:03.129Z,46.55
2022-12-25T21:59:29.757Z,47.45
2022-12-25T22:01:56.604Z,45.75
2022-12-25T22:04:23.760Z,46.40
2022-12-25T22:07:09.221Z,44.35
2022-12-25T22:09:36.222Z,43.40
2022-12-25T22:12:22.055Z,46.33
2022-12-25T22:14:56.725Z,44.55
2022-12-25T22:17:50.615Z,40.78
2022-12-25T22:20:27.911Z,37.50
2022-12-25T22:22:54.861Z,39.30
2022-12-25T22:25:22.349Z,36.13
2022-12-25T22:27:49.731Z,39.03
2022-12-25T22:30:19.487Z,37.90
2022-12-25T22:32:46.508Z,36.13
2022-12-25T22:35:14.077Z,36.33
2022-12-25T22:37:42.292Z,34.88
2022-12-25T22:40:11.366Z,34.65
2022-12-25T22:42:37.933Z,35.85
2022-12-25T22:45:05.207Z,36.67
2022-12-25T22:47:31.783Z,35.33
2022-12-25T22:49:58.380Z,34.83
2022-12-25T22:52:25.355Z,32.47
2022-12-25T22:54:51.905Z,34.10
2022-12-25T22:57:18.566Z,33.90
2022-12-25T22:59:45.174Z,35.85
2022-12-25T23:02:11.809Z,34.55
2022-12-25T23:04:38.493Z,34.97
2022-12-25T23:07:05.327Z,34.20
2022-12-25T23:09:31.942Z,35.65
2022-12-25T23:11:59.179Z,35.15
2022-12-25T23:14:39.172Z,36.35
2022-12-25T23:17:31.674Z,35.47
2022-12-25T23:20:18.159Z,35.72
2022-12-25T23:23:04.188Z,35.83
2022-12-25T23:25:49.645Z,34.67
2022-12-25T23:28:36.306Z,34.45
2022-12-25T23:31:03.043Z,34.35
2022-12-25T23:33:29.839Z,34.38
2022-12-25T23:35:56.509Z,35.50
2022-12-25T23:38:23.069Z,33.85
2022-12-25T23:40:49.643Z,33.00
2022-12-25T23:43:16.238Z,34.05
2022-12-25T23:45:42.825Z,33.13
2022-12-25T23:48:09.386Z,36.13
2022-12-25T23:50:35.962Z,34.03
2022-12-25T23:53:02.517Z,33.22
2022-12-25T23:55:29.048Z,33.50
2022-12-25T23:57:55.616Z,31.55
